Time;durP1;ratioP1;P1;durP2;ratioP2;P2;SDS_P1;SDS_P2;PMS_P1;PMS_P2;Temp;Humidity;BMP_temperature;BMP_pressure;BME280_temperature;BME280_humidity;BME280_pressure;Samples;Min_cycle;Max_cycle;Signal;HPM_P1;HPM_P2
2021/12/04 00:00:00;;;;;;;5.40;4.90;;;;;;;17.29;50.31;99984.63;4980245;28;20035;-87
2021/12/04 00:02:26;;;;;;;6.50;5.30;;;;;;;17.28;50.63;99981.13;4981728;28;20155;-88
2021/12/04 00:04:53;;;;;;;5.80;5.20;;;;;;;17.28;50.74;99975.94;4973785;28;20043;-86
2021/12/04 00:07:21;;;;;;;5.30;4.80;;;;;;;17.28;50.56;99977.69;4965559;28;20043;-89
2021/12/04 00:09:50;;;;;;;5.72;5.13;;;;;;;17.28;50.79;99970.72;4963170;28;20038;-88
2021/12/04 00:12:16;;;;;;;5.50;5.00;;;;;;;17.29;50.75;99976.81;4962504;28;20043;-88
2021/12/04 00:14:42;;;;;;;5.78;5.18;;;;;;;17.28;50.79;99972.47;4979197;28;20045;-88
2021/12/04 00:17:08;;;;;;;5.72;5.22;;;;;;;17.28;50.57;99972.47;4979425;28;20026;-88
2021/12/04 00:19:34;;;;;;;5.22;4.70;;;;;;;17.27;50.60;99969.03;4979930;28;20571;-88
2021/12/04 00:22:00;;;;;;;5.68;5.00;;;;;;;17.27;50.63;99969.03;4980348;28;20042;-88
2021/12/04 00:24:26;;;;;;;7.55;5.50;;;;;;;17.27;50.63;99963.84;4981031;28;20071;-88
2021/12/04 00:26:53;;;;;;;6.07;5.47;;;;;;;17.26;50.81;99956.91;4980256;28;20035;-88
2021/12/04 00:29:19;;;;;;;6.53;5.40;;;;;;;17.27;50.61;99965.59;4964014;28;20050;-89
2021/12/04 00:31:48;;;;;;;5.30;4.80;;;;;;;17.25;50.79;99963.00;4980313;28;20051;-87
2021/12/04 00:34:14;;;;;;;7.13;5.35;;;;;;;17.26;50.72;99958.66;4963109;28;20035;-88
2021/12/04 00:50:04;;;;;;;6.10;5.50;;;;;;;17.25;50.87;99944.81;4977089;28;20106;-88
2021/12/04 00:52:29;;;;;;;6.30;5.70;;;;;;;17.25;51.10;99946.56;4959468;28;20038;-90
2021/12/04 00:54:55;;;;;;;6.97;6.28;;;;;;;17.25;50.76;99944.81;4958678;28;20548;-88
2021/12/04 00:57:20;;;;;;;6.57;5.60;;;;;;;17.24;50.67;99939.63;4960825;28;20105;-87
2021/12/04 00:59:46;;;;;;;7.05;6.35;;;;;;;17.25;50.45;99950.00;4944111;28;20518;-87
2021/12/04 01:02:11;;;;;;;6.95;6.22;;;;;;;17.24;50.53;99953.47;4959387;28;20556;-88
2021/12/04 01:04:37;;;;;;;5.97;5.38;;;;;;;17.24;50.71;99948.28;4959619;28;20104;-88
2021/12/04 01:07:02;;;;;;;6.15;5.55;;;;;;;17.22;50.82;99939.69;4975026;28;20035;-88
2021/12/04 01:09:28;;;;;;;6.50;5.82;;;;;;;17.22;50.93;99937.09;4976799;28;20038;-89
2021/12/04 01:11:54;;;;;;;6.78;6.07;;;;;;;17.24;50.65;99935.28;4958835;28;20038;-88
2021/12/04 01:14:23;;;;;;;6.07;5.47;;;;;;;17.24;50.73;99935.28;4975658;28;20043;-87
2021/12/04 01:16:49;;;;;;;7.13;6.30;;;;;;;17.24;50.85;99929.25;4974765;28;20100;-87
2021/12/04 01:19:18;;;;;;;6.93;6.22;;;;;;;17.23;50.68;99918.00;4958738;28;20045;-87
2021/12/04 01:21:43;;;;;;;6.57;5.97;;;;;;;17.23;50.60;99912.78;4958873;28;20042;-87
2021/12/04 01:24:09;;;;;;;7.25;6.50;;;;;;;17.22;50.65;99913.69;4974360;28;20039;-89
2021/12/04 01:26:34;;;;;;;6.45;5.80;;;;;;;17.22;50.91;99913.69;4958202;28;20046;-88
2021/12/04 01:29:00;;;;;;;10.00;6.63;;;;;;;17.21;50.76;99917.16;4942367;28;20043;-88
2021/12/04 01:31:26;;;;;;;7.07;6.32;;;;;;;17.22;50.83;99920.63;4958773;28;20066;-88
2021/12/04 01:33:52;;;;;;;6.35;5.75;;;;;;;17.20;50.90;99910.28;4974372;28;20400;-87
2021/12/04 01:36:17;;;;;;;6.90;6.20;;;;;;;17.20;50.86;99910.28;4976353;28;20045;-88
2021/12/04 01:38:43;;;;;;;6.97;6.15;;;;;;;17.21;50.84;99917.16;4975270;28;20027;-86
2021/12/04 01:41:08;;;;;;;6.82;6.13;;;;;;;17.21;50.71;99911.97;4945219;28;20106;-88
2021/12/04 01:43:34;;;;;;;7.05;6.35;;;;;;;17.20;50.86;99912.88;4977370;28;20441;-88
2021/12/04 01:45:59;;;;;;;7.88;7.10;;;;;;;17.21;50.64;99916.31;4961903;28;20063;-87
2021/12/04 01:48:25;;;;;;;7.70;6.90;;;;;;;17.20;50.77;99919.78;4948267;28;20050;-87
2021/12/04 01:50:52;;;;;;;7.38;6.68;;;;;;;17.20;51.04;99917.19;4980200;28;20039;-88
2021/12/04 01:53:18;;;;;;;7.70;6.80;;;;;;;17.19;50.84;99905.94;4982850;28;20035;-88
2021/12/04 01:55:44;;;;;;;8.73;6.53;;;;;;;17.19;50.96;99910.28;4967349;28;20568;-86
2021/12/04 01:58:11;;;;;;;7.50;6.70;;;;;;;17.19;50.77;99916.34;4983180;28;20034;-86
2021/12/04 02:00:39;;;;;;;7.57;6.70;;;;;;;17.18;51.01;99912.03;4966863;28;20130;-88
2021/12/04 02:03:07;;;;;;;8.35;7.35;;;;;;;17.18;51.11;99912.03;4983491;28;20094;-85
2021/12/04 02:05:34;;;;;;;7.93;6.80;;;;;;;17.19;50.83;99915.50;4968217;28;20042;-88
2021/12/04 02:07:59;;;;;;;7.20;6.47;;;;;;;17.19;50.78;99915.50;4967122;28;20041;-88
2021/12/04 02:10:25;;;;;;;8.00;7.20;;;;;;;17.18;50.64;99909.44;4951163;28;20125;-88
2021/12/04 02:12:50;;;;;;;8.15;7.35;;;;;;;17.18;50.86;99912.03;4984497;28;20494;-87
2021/12/04 02:15:17;;;;;;;7.93;7.13;;;;;;;17.17;51.18;99907.72;4965922;28;20459;-88
2021/12/04 02:17:48;;;;;;;8.00;7.20;;;;;;;17.18;50.84;99911.16;4979912;28;20031;-88
2021/12/04 02:20:24;;;;;;;7.82;7.13;;;;;;;17.17;51.10;99905.13;4980617;28;20038;-86
2021/12/04 02:22:50;;;;;;;8.38;7.50;;;;;;;17.17;50.88;99899.06;4980463;28;20038;-88
2021/12/04 02:25:18;;;;;;;8.77;7.88;;;;;;;17.17;50.94;99899.91;4978930;28;20378;-87
2021/12/04 02:27:45;;;;;;;9.35;7.85;;;;;;;17.16;50.94;99898.22;4979067;28;20117;-87
2021/12/04 02:30:13;;;;;;;8.30;7.38;;;;;;;17.16;50.71;99900.81;4977446;28;20452;-88
2021/12/04 02:32:39;;;;;;;8.07;7.22;;;;;;;17.16;51.01;99898.22;4961329;28;20039;-87
2021/12/04 02:35:07;;;;;;;8.90;8.00;;;;;;;17.16;50.80;99895.63;4977279;28;20467;-88
2021/12/04 02:37:34;;;;;;;8.85;7.63;;;;;;;17.16;50.96;99886.94;4961226;28;20026;-86
2021/12/04 02:40:00;;;;;;;9.55;8.15;;;;;;;17.16;50.86;99890.44;4961155;28;20366;-88
2021/12/04 02:42:30;;;;;;;8.48;7.57;;;;;;;17.15;50.69;99891.31;4961075;28;20146;-88
2021/12/04 02:44:58;;;;;;;8.88;7.97;;;;;;;17.16;50.85;99889.53;4977112;28;20037;-88
2021/12/04 02:47:26;;;;;;;8.52;7.65;;;;;;;17.16;51.00;99879.16;4976871;28;20074;-88
2021/12/04 02:49:52;;;;;;;9.50;8.50;;;;;;;17.15;50.78;99875.69;4976860;28;20043;-87
2021/12/04 02:52:19;;;;;;;8.60;7.70;;;;;;;17.16;50.85;99876.56;4977036;28;20069;-88
2021/12/04 02:54:45;;;;;;;9.55;8.13;;;;;;;17.16;51.08;99879.16;4977979;28;20049;-89
2021/12/04 02:57:13;;;;;;;9.48;8.18;;;;;;;17.14;51.22;99870.56;4976408;28;20027;-88
2021/12/04 02:59:40;;;;;;;9.07;7.97;;;;;;;17.15;51.03;99872.25;4978958;28;20039;-89
2021/12/04 03:02:14;;;;;;;9.25;8.27;;;;;;;17.15;50.96;99864.47;4977607;28;20038;-87
2021/12/04 03:04:39;;;;;;;9.35;8.35;;;;;;;17.15;50.90;99869.66;4978872;28;20034;-89
2021/12/04 03:07:04;;;;;;;8.95;8.02;;;;;;;17.15;51.00;99864.47;4960877;28;20045;-88
2021/12/04 03:09:30;;;;;;;9.60;8.57;;;;;;;17.15;51.08;99872.25;4960527;28;20043;-89
2021/12/04 03:11:55;;;;;;;9.65;8.55;;;;;;;17.15;50.95;99872.25;4976758;28;20122;-89
2021/12/04 03:14:22;;;;;;;9.80;8.10;;;;;;;17.13;51.00;99864.47;4946399;28;20055;-88
2021/12/04 03:16:47;;;;;;;9.52;8.50;;;;;;;17.12;51.08;99862.78;4962907;28;20035;-88
2021/12/04 03:19:13;;;;;;;10.07;8.85;;;;;;;17.13;51.29;99858.44;4962252;28;20037;-86
2021/12/04 03:21:39;;;;;;;9.80;8.65;;;;;;;17.13;51.04;99855.84;4978402;28;20039;-88
2021/12/04 03:24:07;;;;;;;10.85;9.13;;;;;;;17.13;50.88;99848.03;4962590;28;20035;-87
2021/12/04 03:26:34;;;;;;;9.65;8.65;;;;;;;17.12;51.54;99849.78;4945625;28;20039;-89
2021/12/04 03:29:03;;;;;;;9.38;8.32;;;;;;;17.13;51.00;99848.03;4977641;28;20086;-87
2021/12/04 03:42:25;;;;;;;10.23;8.93;;;;;;;17.11;51.22;99836.81;4967628;28;20449;-88
2021/12/04 03:44:50;;;;;;;10.73;9.50;;;;;;;17.12;51.01;99838.53;4980411;28;20043;-89
2021/12/04 03:47:17;;;;;;;10.52;9.43;;;;;;;17.12;50.99;99842.00;4944984;28;20047;-88
2021/12/04 03:49:42;;;;;;;10.27;9.05;;;;;;;17.12;51.08;99836.78;4976894;28;20027;-88
2021/12/04 03:52:09;;;;;;;9.75;8.68;;;;;;;17.11;51.01;99835.06;4962864;28;20038;-88
2021/12/04 03:54:35;;;;;;;10.05;8.82;;;;;;;17.11;51.21;99834.22;4961959;28;20051;-88
2021/12/04 03:57:04;;;;;;;10.57;9.40;;;;;;;17.11;51.15;99834.22;4959698;28;20035;-88
2021/12/04 03:59:48;;;;;;;12.68;9.68;;;;;;;17.10;51.04;99825.56;4960121;28;20039;-89
2021/12/04 04:02:17;;;;;;;10.88;9.55;;;;;;;17.10;50.97;99825.56;4975599;28;20121;-88
2021/12/04 04:04:43;;;;;;;11.60;9.55;;;;;;;17.10;51.18;99825.56;4959645;28;20045;-87
2021/12/04 04:07:09;;;;;;;11.88;10.38;;;;;;;17.10;51.02;99828.19;4975272;28;20039;-87
2021/12/04 04:09:35;;;;;;;10.57;9.20;;;;;;;17.09;51.39;99821.25;4975090;28;20111;-88
2021/12/04 04:12:02;;;;;;;11.73;9.52;;;;;;;17.09;50.86;99823.00;4959220;28;20031;-87
2021/12/04 04:14:27;;;;;;;11.57;9.07;;;;;;;17.09;51.08;99817.81;4959370;28;20042;-86
2021/12/04 04:16:55;;;;;;;11.38;10.02;;;;;;;17.09;51.07;99818.66;4959197;28;20511;-87
2021/12/04 04:19:22;;;;;;;11.45;9.68;;;;;;;17.09;50.96;99816.06;4959465;28;20093;-87
2021/12/04 04:21:52;;;;;;;11.85;10.38;;;;;;;17.09;51.09;99817.81;4959212;28;20035;-86
2021/12/04 04:24:17;;;;;;;12.20;10.50;;;;;;;17.09;50.99;99807.41;4975291;28;20431;-87
2021/12/04 04:26:44;;;;;;;11.10;9.55;;;;;;;17.08;51.09;99803.97;4943163;28;20062;-85
2021/12/04 04:29:11;;;;;;;12.23;10.10;;;;;;;17.09;50.92;99804.81;4975130;28;20039;-84
2021/12/04 04:31:45;;;;;;;12.27;9.73;;;;;;;17.09;50.92;99794.41;4958924;28;20034;-85
2021/12/04 04:34:10;;;;;;;11.73;10.38;;;;;;;17.09;51.10;99794.41;4959933;28;20038;-88
2021/12/04 05:11:17;;;;;;;;;;;;;;;17.05;51.08;99772.84;4961819;28;20416;-86
2021/12/04 05:13:43;;;;;;;11.35;9.85;;;;;;;17.05;51.08;99781.50;4974216;28;19917;-87
2021/12/04 05:16:16;;;;;;;12.77;10.13;;;;;;;17.04;51.04;99776.31;4974156;28;20031;-87
2021/12/04 05:21:37;;;;;;;11.57;9.77;;;;;;;17.04;51.27;99771.97;4952681;28;20058;-88
2021/12/04 05:24:02;;;;;;;10.60;9.45;;;;;;;17.04;50.85;99769.38;4942182;28;20053;-87
2021/12/04 05:26:29;;;;;;;13.43;10.70;;;;;;;17.03;51.05;99770.28;4942392;28;20038;-90
2021/12/04 05:29:01;;;;;;;11.02;9.93;;;;;;;17.04;50.89;99765.94;4975332;28;20031;-85
2021/12/04 05:31:27;;;;;;;11.65;10.20;;;;;;;17.03;51.10;99765.09;4974149;28;20034;-89
2021/12/04 05:33:53;;;;;;;10.73;9.27;;;;;;;17.03;51.06;99759.88;4975120;28;20142;-89
2021/12/04 05:36:19;;;;;;;11.15;9.95;;;;;;;17.02;51.03;99752.97;4957879;28;20054;-86
2021/12/04 05:38:44;;;;;;;11.43;10.23;;;;;;;17.03;50.89;99746.88;4973847;28;20031;-85
2021/12/04 05:41:10;;;;;;;11.55;9.43;;;;;;;17.03;51.01;99741.69;4957785;28;20443;-85
2021/12/04 05:43:36;;;;;;;11.95;10.48;;;;;;;17.02;51.11;99747.75;4973901;28;20485;-84
2021/12/04 05:46:16;;;;;;;10.40;9.30;;;;;;;17.02;51.08;99742.56;4973614;28;20151;-86
2021/12/04 05:56:16;;;;;;;11.73;9.35;;;;;;;17.02;51.42;99749.53;4923600;29;20455;-87
2021/12/04 05:58:41;;;;;;;11.75;9.70;;;;;;;17.02;50.92;99745.16;4922775;29;20035;-87
2021/12/04 06:01:07;;;;;;;10.57;9.48;;;;;;;17.02;50.96;99750.38;4938437;29;20393;-80
2021/12/04 06:03:34;;;;;;;11.38;9.80;;;;;;;17.01;51.10;99738.28;4922048;29;20039;-80
2021/12/04 06:05:59;;;;;;;11.80;9.70;;;;;;;17.01;50.81;99743.47;4937847;29;20035;-80
2021/12/04 06:08:25;;;;;;;10.60;9.50;;;;;;;17.01;51.13;99733.06;4921890;29;20505;-80
2021/12/04 06:10:51;;;;;;;10.63;8.90;;;;;;;17.01;51.09;99737.44;4937909;29;20489;-82
2021/12/04 06:13:17;;;;;;;11.30;9.73;;;;;;;17.01;50.98;99735.69;4906352;29;20039;-80
2021/12/04 06:15:43;;;;;;;11.45;10.07;;;;;;;17.02;51.18;99741.72;4937845;29;20038;-79
2021/12/04 06:18:10;;;;;;;12.80;10.25;;;;;;;17.08;51.63;99743.31;4937849;29;20046;-80
2021/12/04 06:23:21;;;;;;;14.10;10.45;;;;;;;17.05;51.53;99741.66;4955590;29;20041;-77
2021/12/04 06:25:47;;;;;;;15.07;11.05;;;;;;;17.04;51.59;99743.38;4922064;29;20039;-81
2021/12/04 06:28:13;;;;;;;19.70;11.55;;;;;;;17.05;51.83;99741.66;4937714;29;20062;-80
2021/12/04 06:30:41;;;;;;;19.33;11.23;;;;;;;17.05;51.63;99741.66;4937836;29;20497;-80
2021/12/04 06:33:08;;;;;;;14.60;11.25;;;;;;;17.04;51.77;99734.75;4941628;29;20042;-80
2021/12/04 06:35:36;;;;;;;17.13;12.45;;;;;;;17.03;51.81;99728.69;4941268;29;20031;-81
2021/12/04 06:38:03;;;;;;;17.95;12.15;;;;;;;17.05;51.96;99731.28;4941123;29;20042;-77
2021/12/04 06:40:29;;;;;;;17.58;11.20;;;;;;;17.03;52.15;99726.09;4941142;29;20066;-78
2021/12/04 06:42:57;;;;;;;18.33;12.23;;;;;;;17.04;51.89;99738.19;4941060;29;20478;-79
2021/12/04 06:45:24;;;;;;;15.88;12.25;;;;;;;17.04;51.89;99734.75;4958298;29;20031;-78
2021/12/04 06:47:57;;;;;;;20.38;12.10;;;;;;;17.04;51.91;99739.94;4950432;28;20097;-80
2021/12/04 06:53:27;;;;;;;16.92;12.38;;;;;;;17.03;51.93;99740.84;4963010;28;20038;-84
2021/12/04 06:55:54;;;;;;;15.85;11.48;;;;;;;17.02;52.01;99726.13;4976188;28;20043;-78
2021/12/04 06:58:22;;;;;;;19.27;12.20;;;;;;;17.02;52.07;99728.72;4960403;28;20398;-79
2021/12/04 07:00:48;;;;;;;16.67;12.13;;;;;;;17.01;52.09;99727.03;4977478;28;20050;-78
2021/12/04 07:03:14;;;;;;;16.63;11.98;;;;;;;17.01;51.79;99719.25;4976163;28;20057;-78
2021/12/04 07:05:39;;;;;;;17.02;12.48;;;;;;;17.01;51.77;99716.63;4960130;28;20039;-76
2021/12/04 07:08:05;;;;;;;18.85;12.45;;;;;;;17.01;52.00;99714.88;4959543;28;20035;-76
2021/12/04 07:10:33;;;;;;;19.10;14.27;;;;;;;17.03;51.77;99712.25;4975791;28;20066;-84
2021/12/04 07:12:59;;;;;;;19.00;13.40;;;;;;;17.08;52.19;99710.38;4959989;28;20133;-84
2021/12/04 07:15:27;;;;;;;21.67;13.82;;;;;;;17.11;51.77;99712.03;4943943;28;20030;-83
2021/12/04 07:17:53;;;;;;;24.73;14.60;;;;;;;17.11;51.80;99712.88;4976107;28;20022;-82
2021/12/04 07:20:19;;;;;;;22.13;15.32;;;;;;;17.12;51.59;99708.56;4975761;28;20090;-84
2021/12/04 07:22:44;;;;;;;19.65;14.82;;;;;;;17.15;51.37;99711.06;4959561;28;20041;-83
2021/12/04 07:25:10;;;;;;;20.17;15.15;;;;;;;17.15;51.49;99713.69;4943670;28;20077;-82
2021/12/04 07:27:35;;;;;;;23.58;14.60;;;;;;;17.16;51.63;99717.97;4943659;28;20039;-83
2021/12/04 07:30:02;;;;;;;21.58;14.45;;;;;;;17.16;51.52;99713.66;4959940;28;20038;-80
2021/12/04 07:32:27;;;;;;;22.00;14.80;;;;;;;17.17;51.63;99706.69;4975689;28;20090;-84
2021/12/04 07:34:53;;;;;;;23.55;15.13;;;;;;;17.16;51.63;99699.78;4959301;28;20042;-81
2021/12/04 07:37:20;;;;;;;22.65;14.52;;;;;;;17.16;51.51;99695.44;4975649;28;20121;-84
2021/12/04 07:39:45;;;;;;;27.20;15.70;;;;;;;17.17;51.77;99701.50;4959534;28;20042;-79
2021/12/04 07:42:10;;;;;;;20.55;14.90;;;;;;;17.17;51.72;99707.53;4942579;28;20470;-76
2021/12/04 07:44:37;;;;;;;24.52;14.52;;;;;;;17.16;51.57;99702.38;4943012;28;20134;-77
2021/12/04 07:47:03;;;;;;;24.20;14.65;;;;;;;17.16;52.06;99686.78;4975001;28;20106;-82
2021/12/04 07:49:28;;;;;;;21.85;14.00;;;;;;;17.17;51.89;99676.34;4958967;28;20038;-82
2021/12/04 07:51:54;;;;;;;19.52;14.38;;;;;;;17.18;52.04;99659.00;4958879;28;20129;-84
2021/12/04 07:54:19;;;;;;;26.63;15.25;;;;;;;17.16;52.03;99661.66;4975039;28;20051;-81
2021/12/04 07:56:44;;;;;;;26.77;15.02;;;;;;;17.16;52.25;99659.06;4958848;28;20050;-76
2021/12/04 07:59:10;;;;;;;23.25;14.10;;;;;;;17.17;52.86;99671.16;4958712;28;20038;-83
2021/12/04 08:01:36;;;;;;;22.88;14.30;;;;;;;17.18;53.23;99669.38;4958562;28;20035;-78
2021/12/04 08:04:01;;;;;;;22.65;14.80;;;;;;;17.18;53.12;99678.06;4974680;28;20039;-81
2021/12/04 08:06:27;;;;;;;24.15;14.43;;;;;;;17.18;53.13;99670.28;4942525;28;20043;-79
2021/12/04 08:08:53;;;;;;;21.20;14.05;;;;;;;17.19;53.21;99665.91;4942685;28;20035;-79
2021/12/04 08:11:19;;;;;;;22.75;13.73;;;;;;;17.19;53.30;99658.97;4975123;28;20035;-79
2021/12/04 08:13:47;;;;;;;19.85;13.98;;;;;;;17.19;53.41;99656.38;4974802;28;20366;-79
2021/12/04 08:16:13;;;;;;;22.20;13.23;;;;;;;17.20;53.28;99658.09;4974770;28;20038;-83
2021/12/04 08:18:38;;;;;;;22.70;14.20;;;;;;;17.20;53.59;99663.28;4974784;28;20037;-80
2021/12/04 08:21:03;;;;;;;18.17;14.23;;;;;;;17.21;53.49;99666.72;4975788;28;20532;-83
2021/12/04 08:23:29;;;;;;;20.00;14.13;;;;;;;17.23;53.33;99671.00;4958448;28;20031;-78
2021/12/04 08:25:56;;;;;;;21.27;13.30;;;;;;;17.21;53.58;99669.34;4942714;28;20153;-86
2021/12/04 08:28:21;;;;;;;23.90;14.38;;;;;;;17.22;53.72;99671.03;4974430;28;20031;-80
2021/12/04 08:30:47;;;;;;;20.17;14.57;;;;;;;17.22;53.59;99671.91;4974454;28;20039;-86
2021/12/04 08:33:13;;;;;;;25.52;14.25;;;;;;;17.24;53.66;99664.88;4975050;28;20062;-90
2021/12/04 08:35:40;;;;;;;26.05;13.82;;;;;;;17.39;53.60;99670.56;4959475;28;20154;-91
2021/12/04 08:38:11;;;;;;;31.38;13.88;;;;;;;17.37;53.64;99669.75;4975396;28;20034;-89
2021/12/04 08:40:39;;;;;;;28.52;14.57;;;;;;;17.34;52.88;99672.47;4975476;28;20038;-88
2021/12/04 08:43:05;;;;;;;28.23;13.88;;;;;;;17.30;53.42;99676.03;4975123;28;20366;-89
2021/12/04 08:45:31;;;;;;;25.58;13.88;;;;;;;17.34;53.40;99673.31;4975522;28;20137;-91
2021/12/04 08:47:56;;;;;;;29.25;14.70;;;;;;;17.31;53.29;99676.00;4958938;28;20082;-86
2021/12/04 08:50:25;;;;;;;31.08;15.02;;;;;;;17.27;53.04;99666.56;4958531;28;20405;-84
2021/12/04 08:52:52;;;;;;;26.77;14.82;;;;;;;17.25;53.24;99657.97;4975447;28;20417;-85
2021/12/04 08:55:18;;;;;;;25.88;14.68;;;;;;;17.27;53.25;99658.78;4973956;28;20397;-84
2021/12/04 08:57:44;;;;;;;33.67;13.73;;;;;;;17.25;53.17;99657.97;4974248;28;20038;-83
2021/12/04 09:00:15;;;;;;;32.05;14.13;;;;;;;17.22;53.27;99655.41;4974491;28;20030;-82
2021/12/04 09:02:42;;;;;;;26.52;14.23;;;;;;;17.18;53.28;99649.47;4974309;28;20031;-82
2021/12/04 09:05:09;;;;;;;28.65;15.45;;;;;;;17.17;53.30;99644.31;4974881;28;20499;-87
2021/12/04 09:07:38;;;;;;;28.48;14.73;;;;;;;17.17;53.08;99647.75;4942983;28;20078;-89
2021/12/04 09:10:04;;;;;;;26.73;13.95;;;;;;;17.17;53.13;99646.91;4974713;28;20031;-82
2021/12/04 09:12:30;;;;;;;21.58;14.93;;;;;;;17.17;53.05;99641.72;4958248;28;20038;-83
2021/12/04 09:14:57;;;;;;;23.30;13.40;;;;;;;17.15;53.00;99636.53;4942305;28;20035;-84
2021/12/04 09:17:23;;;;;;;24.17;14.63;;;;;;;17.17;52.93;99645.16;4973939;28;20034;-86
2021/12/04 09:19:49;;;;;;;21.10;13.85;;;;;;;17.17;52.85;99650.34;4941934;28;20466;-81
2021/12/04 09:22:17;;;;;;;26.65;14.65;;;;;;;17.17;52.84;99645.16;4957698;28;20039;-82
2021/12/04 09:24:48;;;;;;;26.42;14.70;;;;;;;17.17;52.89;99641.72;4958029;28;20125;-82
2021/12/04 10:02:18;;;;;;;25.73;11.52;;;;;;;17.24;53.31;99617.25;4974273;28;20038;-86
2021/12/04 10:34:34;;;;;;;17.08;9.35;;;;;;;17.45;53.29;99579.38;4976920;28;20059;-86
2021/12/04 10:37:08;;;;;;;19.35;8.98;;;;;;;17.42;55.42;99569.94;4961415;28;20133;-81
2021/12/04 10:39:34;;;;;;;19.60;10.10;;;;;;;16.73;73.36;99569.19;4963321;28;20126;-81
2021/12/04 10:42:03;;;;;;;19.42;9.90;;;;;;;16.23;77.46;99568.72;4976405;28;20515;-78
2021/12/04 10:44:30;;;;;;;18.83;9.45;;;;;;;16.02;75.60;99570.91;4976317;28;20062;-79
2021/12/04 10:47:06;;;;;;;15.82;9.63;;;;;;;16.09;76.39;99573.38;4975968;28;20046;-78
2021/12/04 10:49:43;;;;;;;17.50;9.30;;;;;;;15.93;77.16;99573.72;4977282;28;20039;-82
2021/12/04 10:52:34;;;;;;;19.90;9.93;;;;;;;15.86;78.11;99579.09;4977254;28;20130;-79
2021/12/04 10:55:13;;;;;;;17.83;9.88;;;;;;;15.70;79.25;99573.34;4975864;28;20117;-80
2021/12/04 11:06:47;;;;;;;19.02;11.13;;;;;;;15.59;79.15;99566.66;4977304;28;20035;-77
2021/12/04 11:26:19;;;;;;;17.70;9.52;;;;;;;15.98;68.93;99542.47;4977032;28;20084;-78
2021/12/04 11:34:55;;;;;;;22.95;9.82;;;;;;;16.10;66.18;99541.34;4975674;28;20452;-79
2021/12/04 11:37:45;;;;;;;21.33;10.77;;;;;;;16.48;61.62;99527.41;4976722;28;20089;-77
2021/12/04 11:40:23;;;;;;;20.88;11.32;;;;;;;16.52;60.62;99520.41;4976409;28;20477;-77
2021/12/04 11:42:55;;;;;;;23.23;11.80;;;;;;;16.54;59.91;99519.47;4975482;28;20039;-79
2021/12/04 11:45:28;;;;;;;25.45;11.93;;;;;;;16.58;59.54;99520.25;4960000;28;20071;-80
2021/12/04 11:47:56;;;;;;;27.63;12.20;;;;;;;16.59;59.18;99517.63;4975084;28;20046;-81
2021/12/04 11:50:26;;;;;;;28.10;11.73;;;;;;;16.61;58.92;99504.56;4975205;28;20101;-75
2021/12/04 11:52:55;;;;;;;28.88;12.43;;;;;;;16.62;58.79;99498.50;4976204;28;20117;-77
2021/12/04 11:55:23;;;;;;;26.83;12.52;;;;;;;16.63;58.56;99505.38;4976082;28;20031;-79
2021/12/04 11:57:49;;;;;;;26.73;13.35;;;;;;;16.64;58.58;99504.50;4975084;28;20027;-82
2021/12/04 12:00:28;;;;;;;28.08;12.73;;;;;;;16.64;58.39;99500.16;4958964;28;20038;-80
2021/12/04 12:03:15;;;;;;;26.13;13.20;;;;;;;16.65;57.99;99491.44;4974688;28;20031;-77
2021/12/04 12:05:53;;;;;;;24.33;13.38;;;;;;;16.66;58.33;99492.31;4974638;28;20030;-79
2021/12/04 12:08:45;;;;;;;28.80;13.18;;;;;;;16.65;57.99;99486.25;4974584;28;20094;-83
2021/12/04 12:11:33;;;;;;;24.63;12.57;;;;;;;16.66;57.94;99484.53;4962100;28;20042;-82
2021/12/04 12:14:05;;;;;;;26.70;13.65;;;;;;;16.66;57.91;99484.53;4974285;28;20101;-82
2021/12/04 12:16:38;;;;;;;30.63;12.73;;;;;;;16.66;57.54;99482.78;4975646;28;20114;-77
2021/12/04 12:19:13;;;;;;;27.48;13.70;;;;;;;16.67;57.90;99479.28;4975782;28;20422;-78
2021/12/04 12:21:58;;;;;;;20.60;12.77;;;;;;;16.66;57.84;99484.53;4974703;28;20421;-79
2021/12/04 12:27:28;;;;;;;23.42;13.15;;;;;;;16.65;57.81;99478.47;4975835;28;20201;-79
2021/12/04 12:33:19;;;;;;;20.45;13.20;;;;;;;16.64;57.47;99481.13;4975703;28;20077;-75
2021/12/04 12:36:03;;;;;;;26.70;13.20;;;;;;;16.62;57.81;99482.91;4975450;28;20473;-76
2021/12/04 12:38:33;;;;;;;24.90;13.55;;;;;;;16.57;57.45;99479.56;4974365;28;20042;-76
2021/12/04 12:41:03;;;;;;;26.38;14.00;;;;;;;16.54;57.87;99477.91;4973816;28;20555;-77
2021/12/04 12:43:59;;;;;;;25.10;14.13;;;;;;;16.53;57.22;99481.41;4973680;28;20039;-76
2021/12/04 12:46:40;;;;;;;19.88;13.15;;;;;;;16.55;56.34;99483.94;4969236;28;20486;-85
2021/12/04 12:49:37;;;;;;;22.80;13.18;;;;;;;16.60;55.81;99474.31;4975718;28;20090;-92
2021/12/04 12:52:23;;;;;;;29.23;13.32;;;;;;;16.69;55.60;99478.41;4976180;28;20054;-88
2021/12/04 12:54:59;;;;;;;21.60;12.55;;;;;;;16.69;55.50;99475.81;4976688;28;20030;-88
2021/12/04 12:57:27;;;;;;;21.98;13.20;;;;;;;16.68;54.80;99474.97;4976826;28;20113;-88
2021/12/04 13:14:25;;;;;;;21.55;10.32;;;;;;;16.75;54.42;99454.84;4975025;28;20039;-79
2021/12/04 13:17:11;;;;;;;19.98;10.60;;;;;;;16.76;54.29;99451.34;4974113;28;20043;-85
2021/12/04 13:19:40;;;;;;;18.73;9.77;;;;;;;16.77;54.21;99451.31;4975537;28;20089;-80
2021/12/04 13:22:09;;;;;;;23.08;10.25;;;;;;;16.76;54.66;99447.00;4974061;28;20037;-83
2021/12/04 13:24:39;;;;;;;18.73;9.65;;;;;;;16.75;54.77;99447.06;4974860;28;20077;-85
2021/12/04 13:29:39;;;;;;;20.48;9.35;;;;;;;16.80;55.19;99434.81;4975747;28;20030;-83
2021/12/04 13:32:06;;;;;;;14.50;9.80;;;;;;;16.86;56.41;99432.88;4976161;28;20066;-83
2021/12/04 13:34:34;;;;;;;23.48;11.25;;;;;;;17.01;58.52;99426.41;4957872;28;20042;-76
2021/12/04 13:37:01;;;;;;;18.33;11.68;;;;;;;16.97;59.55;99437.78;4973425;28;20130;-77
2021/12/04 13:39:27;;;;;;;16.95;11.18;;;;;;;16.85;59.86;99445.91;4973190;28;20047;-81
2021/12/04 13:41:54;;;;;;;21.90;11.93;;;;;;;16.79;60.16;99446.09;4977446;28;20035;-78
2021/12/04 13:44:22;;;;;;;20.40;12.10;;;;;;;16.77;59.97;99443.53;4977860;28;20089;-82
2021/12/04 13:46:52;;;;;;;20.70;11.88;;;;;;;16.74;59.93;99456.56;4977922;28;20050;-80
2021/12/04 13:49:30;;;;;;;21.85;12.50;;;;;;;16.74;60.64;99455.72;4977524;28;20114;-81
2021/12/04 13:52:03;;;;;;;19.65;12.88;;;;;;;16.71;61.20;99453.22;4977716;28;20067;-82
2021/12/04 13:54:30;;;;;;;23.50;12.82;;;;;;;16.70;60.44;99462.78;4977392;28;20027;-84
2021/12/04 13:56:56;;;;;;;20.05;12.48;;;;;;;16.70;60.79;99461.91;4977796;28;20041;-84
2021/12/04 13:59:24;;;;;;;24.80;12.32;;;;;;;16.65;61.46;99470.66;4961428;28;20047;-82
2021/12/04 14:01:50;;;;;;;20.33;12.10;;;;;;;16.63;61.19;99464.66;4977282;28;20117;-85
2021/12/04 14:04:16;;;;;;;17.92;12.50;;;;;;;16.61;60.34;99457.81;4977416;28;20108;-84
2021/12/04 14:06:51;;;;;;;19.08;12.30;;;;;;;16.59;60.80;99460.47;4977849;28;20487;-86
2021/12/04 14:09:17;;;;;;;16.55;12.10;;;;;;;16.59;61.16;99463.06;4977982;28;20067;-83
2021/12/04 14:11:43;;;;;;;16.75;11.35;;;;;;;16.56;61.15;99460.53;4977320;28;20086;-84
2021/12/04 14:14:24;;;;;;;18.90;11.90;;;;;;;16.55;61.72;99461.44;4960943;28;20045;-82
2021/12/04 14:16:53;;;;;;;17.77;11.70;;;;;;;16.55;61.47;99463.16;4977126;28;20050;-83
2021/12/04 14:19:22;;;;;;;17.77;11.35;;;;;;;16.54;61.50;99471.88;4978271;28;20022;-84
2021/12/04 14:21:59;;;;;;;20.08;12.05;;;;;;;16.53;61.79;99472.78;4977145;28;20035;-82
2021/12/04 14:24:35;;;;;;;18.52;12.23;;;;;;;16.51;60.97;99470.22;4978481;28;20113;-84
2021/12/04 14:27:04;;;;;;;19.35;11.73;;;;;;;16.50;61.84;99463.28;4976966;28;20511;-81
2021/12/04 14:29:32;;;;;;;16.65;11.68;;;;;;;16.51;62.05;99471.97;4976842;28;20042;-81
2021/12/04 14:31:57;;;;;;;19.27;12.02;;;;;;;16.48;61.70;99467.69;4976769;28;20500;-81
2021/12/04 14:34:26;;;;;;;15.70;12.00;;;;;;;16.49;62.04;99469.41;4976634;28;20043;-84
2021/12/04 14:37:24;;;;;;;16.80;10.88;;;;;;;16.54;60.50;99475.31;4977016;28;20031;-88
2021/12/04 14:39:50;;;;;;;18.67;11.48;;;;;;;16.66;62.77;99471.56;4945812;28;20433;-90
2021/12/04 14:42:22;;;;;;;17.85;10.63;;;;;;;16.73;61.39;99477.44;4960724;28;20512;-83
2021/12/04 14:44:55;;;;;;;16.05;11.10;;;;;;;16.67;63.08;99479.28;4977273;28;20113;-90